createdAt,value
2018-02-18T00:00:34.632Z,0
2018-02-18T00:01:49.615Z,0
2018-02-18T00:03:04.766Z,0
2018-02-18T00:04:18.935Z,0
2018-02-18T00:05:34.712Z,0
2018-02-18T00:06:49.937Z,0
2018-02-18T00:08:05.029Z,0
2018-02-18T00:09:20.009Z,0
2018-02-18T00:10:34.735Z,0
2018-02-18T00:11:49.710Z,0
2018-02-18T00:13:04.751Z,0
2018-02-18T00:14:18.992Z,0
2018-02-18T00:15:34.086Z,0
2018-02-18T00:16:48.785Z,0
2018-02-18T00:18:02.957Z,0
2018-02-18T00:19:18.508Z,0
2018-02-18T00:20:33.193Z,0
2018-02-18T00:21:48.004Z,0
2018-02-18T00:23:02.490Z,0
2018-02-18T00:24:17.186Z,0
2018-02-18T00:25:32.072Z,0
2018-02-18T00:26:47.572Z,0
2018-02-18T00:28:02.016Z,0
2018-02-18T00:29:16.062Z,0
2018-02-18T00:30:30.744Z,0
2018-02-18T00:31:44.930Z,0
2018-02-18T00:32:59.618Z,0
2018-02-18T00:34:14.735Z,0
2018-02-18T00:35:29.158Z,0
2018-02-18T00:36:43.952Z,0
2018-02-18T00:37:59.305Z,0
2018-02-18T00:39:13.847Z,0
2018-02-18T00:40:28.298Z,0
2018-02-18T00:41:43.250Z,0
2018-02-18T00:42:58.290Z,0
2018-02-18T00:44:12.895Z,0
2018-02-18T00:45:28.125Z,0
2018-02-18T00:46:42.315Z,0
2018-02-18T00:47:56.768Z,0
2018-02-18T00:49:11.510Z,0
2018-02-18T00:50:25.986Z,0
2018-02-18T00:51:40.382Z,0
2018-02-18T00:52:55.112Z,0
2018-02-18T00:54:10.503Z,0
2018-02-18T00:55:25.245Z,0
2018-02-18T00:56:39.716Z,0
2018-02-18T00:57:54.142Z,0
2018-02-18T00:59:09.226Z,0
2018-02-18T01:00:23.983Z,0
2018-02-18T01:01:38.604Z,0
2018-02-18T01:02:53.292Z,0
2018-02-18T01:04:07.515Z,0
2018-02-18T01:05:22.008Z,0
2018-02-18T01:06:36.683Z,0
2018-02-18T01:07:50.959Z,0
2018-02-18T01:09:05.693Z,0
2018-02-18T01:10:21.085Z,0
2018-02-18T01:11:35.826Z,0
2018-02-18T01:12:50.504Z,0
2018-02-18T01:14:04.945Z,0
2018-02-18T01:15:20.118Z,0
2018-02-18T01:16:34.860Z,0
2018-02-18T01:17:50.146Z,0
2018-02-18T01:19:04.556Z,0
2018-02-18T01:20:19.431Z,0
2018-02-18T01:21:34.134Z,0
2018-02-18T01:22:48.873Z,0
2018-02-18T01:24:04.071Z,0
2018-02-18T01:25:18.736Z,0
2018-02-18T01:26:33.126Z,0
2018-02-18T01:27:48.310Z,0
2018-02-18T01:29:02.709Z,0
2018-02-18T01:30:17.687Z,0
2018-02-18T01:31:32.118Z,0
2018-02-18T01:32:46.579Z,0
2018-02-18T01:34:01.527Z,0
2018-02-18T01:35:16.015Z,0
2018-02-18T01:36:30.429Z,0
2018-02-18T01:37:45.093Z,0
2018-02-18T01:38:59.464Z,0
2018-02-18T01:40:14.103Z,0
2018-02-18T01:41:28.046Z,0
2018-02-18T01:42:44.650Z,0
2018-02-18T01:43:58.793Z,0
2018-02-18T01:45:13.464Z,0
2018-02-18T01:46:28.354Z,0
2018-02-18T01:47:43.031Z,0
2018-02-18T01:48:57.701Z,0
2018-02-18T01:50:11.844Z,0
2018-02-18T01:51:26.487Z,0
2018-02-18T01:52:41.459Z,0
2018-02-18T01:53:56.400Z,0
2018-02-18T01:55:11.369Z,0
2018-02-18T01:56:26.421Z,0
2018-02-18T01:57:41.019Z,0
2018-02-18T01:58:56.397Z,0
2018-02-18T02:00:10.809Z,0
2018-02-18T02:01:26.040Z,0
2018-02-18T02:02:40.883Z,0
2018-02-18T02:03:55.563Z,0
2018-02-18T02:05:10.067Z,0
2018-02-18T02:06:24.334Z,0
2018-02-18T02:07:39.295Z,0
2018-02-18T02:08:54.043Z,0
2018-02-18T02:10:09.289Z,0
2018-02-18T02:11:24.332Z,0
2018-02-18T02:12:39.300Z,0
2018-02-18T02:13:54.008Z,0
2018-02-18T02:15:08.961Z,0
2018-02-18T02:16:23.493Z,0
2018-02-18T02:17:38.440Z,0
2018-02-18T02:18:53.382Z,0
2018-02-18T02:20:07.908Z,0
2018-02-18T02:21:22.593Z,0
2018-02-18T02:22:36.977Z,0
2018-02-18T02:23:52.297Z,0
2018-02-18T02:25:06.948Z,0
2018-02-18T02:26:21.903Z,0
2018-02-18T02:27:36.750Z,0
2018-02-18T02:28:51.391Z,0
2018-02-18T02:30:06.620Z,0
2018-02-18T02:31:21.021Z,0
2018-02-18T02:32:36.177Z,0
2018-02-18T02:33:50.607Z,0
2018-02-18T02:35:05.023Z,0
2018-02-18T02:36:19.829Z,0
2018-02-18T02:37:35.454Z,0
2018-02-18T02:38:50.664Z,0
2018-02-18T02:40:05.056Z,0
2018-02-18T02:41:19.736Z,0
2018-02-18T02:42:34.742Z,0
2018-02-18T02:43:49.695Z,0
2018-02-18T02:45:04.620Z,0
2018-02-18T02:46:19.273Z,0
2018-02-18T02:47:34.570Z,0
2018-02-18T02:48:49.809Z,0
2018-02-18T02:50:04.664Z,0
2018-02-18T02:51:19.310Z,0
2018-02-18T02:52:34.327Z,0
2018-02-18T02:53:49.331Z,0
2018-02-18T02:55:04.013Z,0
2018-02-18T02:56:18.434Z,0
2018-02-18T02:57:33.901Z,0
2018-02-18T02:58:48.836Z,0
2018-02-18T03:00:03.781Z,0
2018-02-18T03:01:18.454Z,0
2018-02-18T03:02:33.506Z,0
2018-02-18T03:03:47.902Z,0
2018-02-18T03:05:02.052Z,0
2018-02-18T03:06:16.445Z,0
2018-02-18T03:07:31.792Z,0
2018-02-18T03:08:46.246Z,0
2018-02-18T03:10:01.166Z,0
2018-02-18T03:11:16.137Z,0
2018-02-18T03:12:31.016Z,0
2018-02-18T03:13:46.072Z,0
2018-02-18T03:15:00.477Z,0
2018-02-18T03:16:15.163Z,0
2018-02-18T03:17:29.586Z,0
2018-02-18T03:18:44.915Z,0
2018-02-18T03:20:00.149Z,0
2018-02-18T03:21:14.825Z,0
2018-02-18T03:22:29.503Z,0
2018-02-18T03:23:44.275Z,0
2018-02-18T03:24:59.522Z,0
2018-02-18T03:26:14.749Z,0
2018-02-18T03:27:29.166Z,0
2018-02-18T03:28:44.138Z,0
2018-02-18T03:29:58.562Z,0
2018-02-18T03:31:13.537Z,0
2018-02-18T03:32:28.794Z,0
2018-02-18T03:33:43.604Z,0
2018-02-18T03:34:58.004Z,0
2018-02-18T03:36:11.884Z,0
2018-02-18T03:37:26.827Z,0
2018-02-18T03:38:41.567Z,0
2018-02-18T03:39:56.221Z,0
2018-02-18T03:41:10.871Z,0
2018-02-18T03:42:25.254Z,0
2018-02-18T03:43:39.881Z,0
2018-02-18T03:44:54.924Z,0
2018-02-18T03:46:09.906Z,0
2018-02-18T03:47:24.547Z,0
2018-02-18T03:48:39.287Z,0
2018-02-18T03:49:53.476Z,0
2018-02-18T03:51:07.662Z,0
2018-02-18T03:52:49.009Z,0
2018-02-18T03:54:03.255Z,0
2018-02-18T03:55:17.676Z,0
2018-02-18T03:56:32.336Z,0
2018-02-18T03:57:46.992Z,0
2018-02-18T03:59:01.471Z,0
2018-02-18T04:00:16.378Z,0
2018-02-18T04:01:31.021Z,0
2018-02-18T04:02:45.853Z,0
2018-02-18T04:04:00.558Z,0
2018-02-18T04:05:15.585Z,0
2018-02-18T04:06:30.245Z,0
2018-02-18T04:07:45.204Z,0
2018-02-18T04:09:00.742Z,0
2018-02-18T04:10:15.832Z,0
2018-02-18T04:11:30.783Z,0
2018-02-18T04:12:44.919Z,0
2018-02-18T04:14:00.171Z,0
2018-02-18T04:15:14.933Z,0
2018-02-18T04:16:29.896Z,0
2018-02-18T04:17:44.328Z,0
2018-02-18T04:18:59.352Z,0
2018-02-18T04:20:14.387Z,0
2018-02-18T04:21:29.379Z,0
2018-02-18T04:22:43.536Z,0
2018-02-18T04:23:58.678Z,0
2018-02-18T04:25:14.092Z,0
2018-02-18T04:26:29.031Z,0
2018-02-18T04:27:44.222Z,0
2018-02-18T04:28:58.900Z,0
2018-02-18T04:30:13.895Z,0
2018-02-18T04:31:28.582Z,0
2018-02-18T04:32:43.306Z,0
2018-02-18T04:33:57.959Z,0
2018-02-18T04:35:12.656Z,0
2018-02-18T04:36:28.063Z,0
2018-02-18T04:37:43.021Z,0
2018-02-18T04:38:58.221Z,0
2018-02-18T04:40:12.875Z,0
2018-02-18T04:41:27.873Z,0
2018-02-18T04:42:42.532Z,0
2018-02-18T04:43:56.896Z,0
2018-02-18T04:46:09.969Z,0
2018-02-18T04:47:24.904Z,0
2018-02-18T04:48:40.456Z,0
2018-02-18T04:49:55.387Z,0
2018-02-18T04:51:10.100Z,0
2018-02-18T04:52:24.770Z,0
2018-02-18T04:53:39.168Z,0
2018-02-18T04:54:54.157Z,0
2018-02-18T04:56:08.683Z,0
2018-02-18T04:57:22.578Z,0
2018-02-18T04:59:01.221Z,0
2018-02-18T05:00:16.427Z,0
2018-02-18T05:01:30.884Z,0
2018-02-18T05:02:45.924Z,0
2018-02-18T05:04:00.307Z,0
2018-02-18T05:05:14.815Z,0
2018-02-18T05:06:28.834Z,0
2018-02-18T05:07:43.550Z,0
2018-02-18T05:08:58.566Z,0
2018-02-18T05:10:13.254Z,0
2018-02-18T05:11:28.489Z,0
2018-02-18T05:12:43.129Z,0
2018-02-18T05:13:58.097Z,0
2018-02-18T05:15:12.014Z,0
2018-02-18T05:16:26.927Z,0
2018-02-18T05:17:41.912Z,0
2018-02-18T05:18:56.567Z,0
2018-02-18T05:20:11.480Z,0
2018-02-18T05:21:26.123Z,0
2018-02-18T05:22:40.816Z,0
2018-02-18T05:23:55.534Z,0
2018-02-18T05:25:10.979Z,0
2018-02-18T05:26:25.430Z,0
2018-02-18T05:27:39.896Z,0
2018-02-18T05:28:54.442Z,0
2018-02-18T05:30:09.142Z,0
2018-02-18T05:31:24.888Z,0
2018-02-18T05:32:38.991Z,0
2018-02-18T05:33:53.688Z,0
2018-02-18T05:35:08.108Z,0
2018-02-18T05:36:23.163Z,0
2018-02-18T05:37:37.902Z,0
2018-02-18T05:38:52.634Z,0
2018-02-18T05:40:06.768Z,0
2018-02-18T05:41:21.477Z,0
2018-02-18T05:42:36.821Z,0
2018-02-18T05:43:52.277Z,0
2018-02-18T05:45:06.714Z,0
2018-02-18T05:46:21.824Z,0
2018-02-18T05:47:37.258Z,0
2018-02-18T05:48:52.859Z,0
2018-02-18T05:50:07.009Z,0
2018-02-18T05:51:21.181Z,0
2018-02-18T05:52:36.633Z,0
2018-02-18T05:53:50.807Z,0
2018-02-18T05:55:05.573Z,0
2018-02-18T05:56:19.981Z,0
2018-02-18T05:57:34.367Z,0
2018-02-18T05:58:49.376Z,0
2018-02-18T06:00:04.640Z,0
2018-02-18T06:01:18.928Z,0
2018-02-18T06:02:34.250Z,0
2018-02-18T06:03:49.522Z,0
2018-02-18T06:05:04.326Z,0
2018-02-18T06:06:18.799Z,0
2018-02-18T06:07:33.830Z,0
2018-02-18T06:08:48.281Z,0
2018-02-18T06:10:02.992Z,0
2018-02-18T06:11:17.443Z,0
2018-02-18T06:12:32.776Z,0
2018-02-18T06:13:47.998Z,0
2018-02-18T06:15:02.887Z,0
2018-02-18T06:16:17.066Z,0
2018-02-18T06:17:31.671Z,0
2018-02-18T06:18:47.016Z,0
2018-02-18T06:20:02.249Z,0
2018-02-18T06:21:16.892Z,0
2018-02-18T06:22:31.840Z,0
2018-02-18T06:23:46.277Z,0
2018-02-18T06:25:00.863Z,0
2018-02-18T06:26:15.858Z,0
2018-02-18T06:27:30.554Z,0
2018-02-18T06:28:45.042Z,0
2018-02-18T06:29:59.987Z,0
2018-02-18T06:31:15.242Z,5
2018-02-18T06:32:29.954Z,5
2018-02-18T06:33:44.598Z,5
2018-02-18T06:34:58.748Z,5
2018-02-18T06:36:13.858Z,5
2018-02-18T06:37:28.091Z,5
2018-02-18T06:38:42.563Z,5
2018-02-18T06:39:57.236Z,10
2018-02-18T06:41:11.943Z,10
2018-02-18T06:42:26.921Z,10
2018-02-18T06:43:41.864Z,10
2018-02-18T06:44:56.831Z,10
2018-02-18T06:46:11.308Z,10
2018-02-18T06:47:26.472Z,15
2018-02-18T06:48:41.481Z,15
2018-02-18T06:49:56.185Z,15
2018-02-18T06:51:11.066Z,15
2018-02-18T06:52:25.922Z,15
2018-02-18T06:53:41.057Z,20
2018-02-18T06:54:55.818Z,20
2018-02-18T06:56:10.778Z,20
2018-02-18T06:57:25.723Z,20
2018-02-18T06:58:40.512Z,20
2018-02-18T06:59:54.852Z,25
2018-02-18T07:01:09.243Z,25
2018-02-18T07:02:23.398Z,25
2018-02-18T07:03:38.093Z,25
2018-02-18T07:04:52.550Z,30
2018-02-18T07:06:06.938Z,30
2018-02-18T07:07:21.910Z,30
2018-02-18T07:08:37.060Z,30
2018-02-18T07:09:51.349Z,30
2018-02-18T07:11:06.062Z,35
2018-02-18T07:12:20.745Z,35
2018-02-18T07:13:34.902Z,35
2018-02-18T07:14:49.880Z,35
2018-02-18T07:16:04.704Z,40
2018-02-18T07:17:19.912Z,40
2018-02-18T07:18:34.688Z,40
2018-02-18T07:19:49.225Z,40
2018-02-18T07:21:03.915Z,40
2018-02-18T07:22:19.490Z,45
2018-02-18T07:23:34.448Z,45
2018-02-18T07:24:49.315Z,45
2018-02-18T07:26:03.706Z,45
2018-02-18T07:27:18.395Z,45
2018-02-18T07:28:33.354Z,50
2018-02-18T07:29:48.262Z,50
2018-02-18T07:31:02.699Z,50
2018-02-18T07:32:17.096Z,50
2018-02-18T07:33:31.913Z,50
2018-02-18T07:34:46.601Z,50
2018-02-18T07:36:01.532Z,55
2018-02-18T07:37:16.214Z,55
2018-02-18T07:38:31.230Z,55
2018-02-18T07:39:46.380Z,55
2018-02-18T07:41:38.747Z,55
2018-02-18T07:42:53.956Z,60
2018-02-18T07:44:08.686Z,60
2018-02-18T07:45:23.107Z,60
2018-02-18T07:46:38.015Z,60
2018-02-18T07:47:53.050Z,60
2018-02-18T07:49:07.508Z,60
2018-02-18T07:50:22.323Z,65
2018-02-18T07:51:37.040Z,65
2018-02-18T07:52:52.259Z,65
2018-02-18T07:54:07.035Z,65
2018-02-18T07:55:22.566Z,65
2018-02-18T07:56:37.881Z,65
2018-02-18T07:57:52.888Z,65
2018-02-18T07:59:08.311Z,70
2018-02-18T08:00:23.086Z,70
2018-02-18T08:01:38.546Z,70
2018-02-18T08:02:53.521Z,70
2018-02-18T08:04:08.210Z,70
2018-02-18T08:05:23.697Z,70
2018-02-18T08:06:39.379Z,70
2018-02-18T08:07:53.958Z,75
2018-02-18T08:09:08.122Z,75
2018-02-18T08:10:23.135Z,75
2018-02-18T08:11:38.297Z,75
2018-02-18T08:12:53.591Z,75
2018-02-18T08:14:08.616Z,75
2018-02-18T08:15:23.265Z,75
2018-02-18T08:16:37.445Z,75
2018-02-18T08:17:52.288Z,80
2018-02-18T08:19:07.003Z,80
2018-02-18T08:20:21.256Z,80
2018-02-18T08:21:36.388Z,80
2018-02-18T08:22:51.091Z,80
2018-02-18T08:24:06.819Z,80
2018-02-18T08:25:21.626Z,80
2018-02-18T08:26:36.205Z,80
2018-02-18T08:27:50.947Z,80
2018-02-18T08:29:05.448Z,80
2018-02-18T08:30:20.569Z,85
2018-02-18T08:31:36.179Z,85
2018-02-18T08:32:51.019Z,85
2018-02-18T08:34:05.702Z,85
2018-02-18T08:35:19.629Z,85
2018-02-18T08:36:35.166Z,85
2018-02-18T08:37:50.455Z,85
2018-02-18T08:39:04.892Z,85
2018-02-18T08:40:18.810Z,85
2018-02-18T08:41:33.038Z,85
2018-02-18T08:42:47.720Z,90
2018-02-18T08:44:02.328Z,90
2018-02-18T08:45:16.876Z,90
2018-02-18T08:46:32.072Z,90
2018-02-18T08:47:46.627Z,90
2018-02-18T08:49:01.677Z,90
2018-02-18T08:50:17.201Z,90
2018-02-18T08:51:31.412Z,90
2018-02-18T08:52:46.502Z,90
2018-02-18T08:54:01.785Z,90
2018-02-18T08:55:16.492Z,95
2018-02-18T08:56:32.389Z,95
2018-02-18T08:57:47.570Z,95
2018-02-18T08:59:02.627Z,95
2018-02-18T09:00:17.647Z,95
2018-02-18T09:01:32.979Z,95
2018-02-18T09:03:03.467Z,95
2018-02-18T09:04:17.980Z,95
2018-02-18T09:05:33.305Z,95
2018-02-18T09:06:48.294Z,95
2018-02-18T09:08:03.692Z,95
2018-02-18T09:09:18.117Z,95
2018-02-18T09:10:33.453Z,95
2018-02-18T09:11:48.521Z,95
2018-02-18T09:13:03.536Z,95
2018-02-18T09:14:17.794Z,95
2018-02-18T09:15:33.307Z,95
2018-02-18T09:16:47.564Z,95
2018-02-18T09:18:03.092Z,95
2018-02-18T09:19:18.011Z,95
2018-02-18T09:20:33.037Z,95
2018-02-18T09:21:48.072Z,95
2018-02-18T09:23:02.769Z,95
2018-02-18T09:24:17.723Z,95
2018-02-18T09:25:32.660Z,95
2018-02-18T09:26:47.818Z,95
2018-02-18T09:28:03.156Z,95
2018-02-18T09:29:17.914Z,95
2018-02-18T09:30:32.794Z,95
2018-02-18T09:31:46.983Z,95
2018-02-18T09:33:02.452Z,100
2018-02-18T09:34:17.773Z,95
2018-02-18T09:35:32.532Z,95
2018-02-18T09:36:47.012Z,95
2018-02-18T09:38:02.251Z,95
2018-02-18T09:39:16.789Z,100
2018-02-18T09:40:31.546Z,100
2018-02-18T09:41:46.502Z,100
2018-02-18T09:43:01.129Z,100
2018-02-18T09:44:15.893Z,100
2018-02-18T09:45:30.999Z,100
2018-02-18T09:46:46.324Z,100
2018-02-18T09:48:00.926Z,100
2018-02-18T09:49:15.919Z,100
2018-02-18T09:50:30.483Z,100
2018-02-18T09:51:45.525Z,100
2018-02-18T09:53:00.825Z,100
2018-02-18T09:54:15.568Z,100
2018-02-18T09:55:30.445Z,100
2018-02-18T09:56:45.472Z,100
2018-02-18T09:58:01.004Z,100
2018-02-18T09:59:16.299Z,100
2018-02-18T10:00:30.821Z,100
2018-02-18T10:01:45.276Z,100
2018-02-18T10:03:00.681Z,100
2018-02-18T10:04:15.133Z,100
2018-02-18T10:05:30.139Z,100
2018-02-18T10:06:45.141Z,100
2018-02-18T10:07:59.967Z,100
2018-02-18T10:09:14.651Z,100
2018-02-18T10:10:28.923Z,100
2018-02-18T10:11:43.653Z,100
2018-02-18T10:12:58.380Z,100
2018-02-18T10:14:13.687Z,100
2018-02-18T10:15:28.562Z,100
2018-02-18T10:16:43.012Z,100
2018-02-18T10:17:57.816Z,100
2018-02-18T10:19:12.221Z,100
2018-02-18T10:20:27.062Z,100
2018-02-18T10:21:41.370Z,100
2018-02-18T10:22:56.434Z,100
2018-02-18T10:24:11.951Z,100
2018-02-18T10:25:26.488Z,100
2018-02-18T10:26:41.006Z,100
2018-02-18T10:27:56.099Z,100
2018-02-18T10:29:11.128Z,100
2018-02-18T10:30:26.294Z,100
2018-02-18T10:31:41.419Z,100
2018-02-18T10:32:56.604Z,100
2018-02-18T10:34:11.867Z,100
2018-02-18T10:35:26.744Z,100
2018-02-18T10:36:41.516Z,100
2018-02-18T10:37:55.862Z,100
2018-02-18T10:39:10.226Z,100
2018-02-18T10:40:25.312Z,100
2018-02-18T10:41:40.151Z,100
2018-02-18T10:42:55.125Z,100
2018-02-18T10:44:10.018Z,100
2018-02-18T10:45:24.635Z,100
2018-02-18T10:46:39.174Z,100
2018-02-18T10:47:54.188Z,100
2018-02-18T10:49:09.495Z,100
2018-02-18T10:50:23.898Z,100
2018-02-18T10:51:38.666Z,100
2018-02-18T10:52:53.461Z,100
2018-02-18T10:54:08.275Z,100
2018-02-18T10:55:22.639Z,100
2018-02-18T10:56:37.853Z,100
2018-02-18T10:57:52.338Z,100
2018-02-18T10:59:07.463Z,100
2018-02-18T11:00:22.341Z,100
2018-02-18T11:01:37.438Z,100
2018-02-18T11:02:52.510Z,100
2018-02-18T11:04:07.433Z,100
2018-02-18T11:05:22.461Z,100
2018-02-18T11:06:37.305Z,100
2018-02-18T11:07:51.827Z,100
2018-02-18T11:09:07.022Z,100
2018-02-18T11:10:21.754Z,100
2018-02-18T11:11:36.615Z,100
2018-02-18T11:12:51.251Z,100
2018-02-18T11:14:05.851Z,100
2018-02-18T11:15:20.909Z,100
2018-02-18T11:16:36.078Z,100
2018-02-18T11:17:49.842Z,100
2018-02-18T11:19:05.014Z,100
2018-02-18T11:20:20.711Z,100
2018-02-18T11:21:35.509Z,95
2018-02-18T11:22:49.990Z,95
2018-02-18T11:24:04.509Z,95
2018-02-18T11:25:18.934Z,100
2018-02-18T11:26:33.395Z,100
2018-02-18T11:27:48.229Z,100
2018-02-18T11:29:03.710Z,95
2018-02-18T11:30:18.997Z,95
2018-02-18T11:31:33.562Z,95
2018-02-18T11:32:48.354Z,95
2018-02-18T11:34:03.108Z,95
2018-02-18T11:35:18.060Z,95
2018-02-18T11:36:33.048Z,95
2018-02-18T11:37:47.345Z,95
2018-02-18T11:39:02.604Z,95
2018-02-18T11:40:16.847Z,95
2018-02-18T11:41:31.512Z,95
2018-02-18T11:42:46.603Z,95
2018-02-18T11:44:01.220Z,95
2018-02-18T11:45:16.392Z,95
2018-02-18T11:46:31.185Z,95
2018-02-18T11:47:46.053Z,95
2018-02-18T11:49:01.066Z,95
2018-02-18T11:50:15.781Z,100
2018-02-18T11:51:31.036Z,110
2018-02-18T11:52:45.880Z,105
2018-02-18T11:54:01.089Z,90
2018-02-18T11:55:15.849Z,100
2018-02-18T11:56:30.471Z,100
2018-02-18T11:57:45.697Z,100
2018-02-18T11:58:59.685Z,90
2018-02-18T12:00:14.307Z,95
2018-02-18T12:01:29.127Z,100
2018-02-18T12:02:43.915Z,105
2018-02-18T12:03:59.702Z,105
2018-02-18T12:05:14.837Z,100
2018-02-18T12:06:29.130Z,100
2018-02-18T12:07:43.439Z,95
2018-02-18T12:08:58.531Z,95
2018-02-18T12:10:13.833Z,95
2018-02-18T12:11:28.831Z,95
2018-02-18T12:12:43.121Z,95
2018-02-18T12:13:58.476Z,95
2018-02-18T12:15:12.428Z,95
2018-02-18T12:16:27.598Z,100
2018-02-18T12:17:42.483Z,100
2018-02-18T12:18:57.869Z,105
2018-02-18T12:20:12.652Z,100
2018-02-18T12:21:27.468Z,100
2018-02-18T12:22:42.338Z,100
2018-02-18T12:23:56.577Z,95
2018-02-18T12:25:10.824Z,95
2018-02-18T12:26:25.728Z,95
2018-02-18T12:27:40.560Z,95
2018-02-18T12:28:54.837Z,110
2018-02-18T12:30:09.713Z,110
2018-02-18T12:31:25.100Z,115
2018-02-18T12:32:39.784Z,110
2018-02-18T12:33:55.463Z,105
2018-02-18T12:35:10.565Z,105
2018-02-18T12:36:24.797Z,105
2018-02-18T12:37:39.471Z,105
2018-02-18T12:38:54.209Z,95
2018-02-18T12:40:08.422Z,95
2018-02-18T12:41:22.981Z,100
2018-02-18T12:42:38.154Z,105
2018-02-18T12:43:52.195Z,105
2018-02-18T12:45:07.016Z,105
2018-02-18T12:46:22.038Z,105
2018-02-18T12:47:37.296Z,105
2018-02-18T12:48:52.073Z,105
2018-02-18T12:50:07.227Z,105
2018-02-18T12:51:22.043Z,105
2018-02-18T12:52:36.663Z,105
2018-02-18T12:53:51.996Z,105
2018-02-18T12:55:06.784Z,100
2018-02-18T12:56:21.833Z,100
2018-02-18T12:57:36.832Z,105
2018-02-18T12:58:51.519Z,100
2018-02-18T13:00:07.139Z,100
2018-02-18T13:01:21.394Z,100
2018-02-18T13:02:36.166Z,100
2018-02-18T13:03:51.214Z,100
2018-02-18T13:05:06.317Z,100
2018-02-18T13:06:20.965Z,100
2018-02-18T13:07:36.206Z,105
2018-02-18T13:08:51.013Z,100
2018-02-18T13:12:23.069Z,100
2018-02-18T13:13:38.801Z,95
2018-02-18T13:14:53.918Z,95
2018-02-18T13:16:09.201Z,95
2018-02-18T13:17:24.533Z,95
2018-02-18T13:18:39.739Z,100
2018-02-18T13:19:54.831Z,100
2018-02-18T13:21:09.674Z,95
2018-02-18T13:22:24.785Z,95
2018-02-18T13:23:39.491Z,90
2018-02-18T13:24:54.525Z,90
2018-02-18T13:26:09.254Z,90
2018-02-18T13:27:24.014Z,90
2018-02-18T13:28:39.361Z,85
2018-02-18T13:29:53.895Z,90
2018-02-18T13:31:08.451Z,90
2018-02-18T13:32:23.829Z,90
2018-02-18T13:33:38.027Z,90
2018-02-18T13:34:53.102Z,90
2018-02-18T13:36:07.758Z,90
2018-02-18T13:37:22.555Z,90
2018-02-18T13:38:37.467Z,90
2018-02-18T13:40:23.251Z,90
2018-02-18T13:41:38.073Z,90
2018-02-18T13:42:52.901Z,90
2018-02-18T13:44:07.610Z,90
2018-02-18T13:45:22.439Z,90
2018-02-18T13:46:36.630Z,90
2018-02-18T13:47:50.885Z,90
2018-02-18T13:49:06.141Z,90
2018-02-18T13:50:20.724Z,90
2018-02-18T13:51:35.963Z,90
2018-02-18T13:52:51.091Z,90
2018-02-18T13:54:05.496Z,90
2018-02-18T13:55:20.655Z,90
2018-02-18T13:56:35.856Z,90
2018-02-18T13:57:50.995Z,90
2018-02-18T13:59:05.871Z,85
2018-02-18T14:00:20.373Z,85
2018-02-18T14:01:35.884Z,85
2018-02-18T14:02:50.175Z,85
2018-02-18T14:04:05.575Z,85
2018-02-18T14:05:19.581Z,85
2018-02-18T14:06:34.799Z,85
2018-02-18T14:07:50.223Z,85
2018-02-18T14:09:04.571Z,85
2018-02-18T14:10:19.468Z,85
2018-02-18T14:11:34.094Z,85
2018-02-18T14:12:49.099Z,85
2018-02-18T14:14:03.890Z,85
2018-02-18T14:15:19.410Z,85
2018-02-18T14:16:34.601Z,85
2018-02-18T14:17:50.143Z,85
2018-02-18T14:19:04.612Z,85
2018-02-18T14:20:19.076Z,85
2018-02-18T14:21:33.688Z,85
2018-02-18T14:22:48.925Z,85
2018-02-18T14:24:04.153Z,85
2018-02-18T14:25:19.470Z,80
2018-02-18T14:26:34.466Z,80
2018-02-18T14:27:48.944Z,80
2018-02-18T14:29:03.638Z,80
2018-02-18T14:30:18.250Z,80
2018-02-18T14:31:33.314Z,80
2018-02-18T14:32:47.764Z,80
2018-02-18T14:34:02.712Z,80
2018-02-18T14:35:17.879Z,80
2018-02-18T14:36:32.139Z,80
2018-02-18T14:37:46.910Z,80
2018-02-18T14:39:01.600Z,80
2018-02-18T14:40:16.015Z,80
2018-02-18T14:41:31.121Z,80
2018-02-18T14:42:45.481Z,75
2018-02-18T14:44:00.074Z,75
2018-02-18T14:45:15.200Z,75
2018-02-18T14:46:29.781Z,75
2018-02-18T14:47:44.355Z,75
2018-02-18T14:48:59.135Z,75
2018-02-18T14:50:13.735Z,75
2018-02-18T14:51:28.803Z,75
2018-02-18T14:52:43.036Z,75
2018-02-18T14:53:57.278Z,75
2018-02-18T14:55:12.642Z,75
2018-02-18T14:56:27.793Z,75
2018-02-18T14:57:42.345Z,70
2018-02-18T14:58:57.034Z,70
2018-02-18T15:00:11.737Z,70
2018-02-18T15:01:26.802Z,70
2018-02-18T15:02:41.097Z,70
2018-02-18T15:03:55.935Z,70
2018-02-18T15:05:11.140Z,70
2018-02-18T15:06:25.904Z,70
2018-02-18T15:07:41.020Z,70
2018-02-18T15:08:55.823Z,70
2018-02-18T15:10:10.421Z,65
2018-02-18T15:11:25.522Z,65
2018-02-18T15:12:40.262Z,65
2018-02-18T15:13:55.071Z,65
2018-02-18T15:15:09.254Z,65
2018-02-18T15:16:24.207Z,65
2018-02-18T15:17:39.335Z,65
2018-02-18T15:18:54.551Z,65
2018-02-18T15:20:08.782Z,65
2018-02-18T15:21:23.939Z,60
2018-02-18T15:22:38.476Z,60
2018-02-18T15:23:53.807Z,60
2018-02-18T15:25:08.853Z,60
2018-02-18T15:26:23.581Z,60
2018-02-18T15:27:38.628Z,60
2018-02-18T15:28:53.036Z,60
2018-02-18T15:30:07.767Z,60
2018-02-18T15:31:22.387Z,60
2018-02-18T15:32:36.383Z,55
2018-02-18T15:33:51.128Z,55
2018-02-18T15:35:05.873Z,55
2018-02-18T15:36:20.072Z,55
2018-02-18T15:37:34.646Z,55
2018-02-18T15:38:49.701Z,55
2018-02-18T15:40:04.580Z,50
2018-02-18T15:41:19.475Z,50
2018-02-18T15:42:34.127Z,50
2018-02-18T15:43:49.247Z,50
2018-02-18T15:45:03.996Z,50
2018-02-18T15:46:19.174Z,50
2018-02-18T15:47:33.946Z,45
2018-02-18T15:48:48.427Z,45
2018-02-18T15:50:04.298Z,45
2018-02-18T15:51:19.050Z,45
2018-02-18T15:52:33.678Z,45
2018-02-18T15:53:48.461Z,40
2018-02-18T15:55:03.263Z,40
2018-02-18T15:56:18.411Z,40
2018-02-18T15:57:32.948Z,40
2018-02-18T15:58:47.709Z,40
2018-02-18T16:00:02.524Z,40
2018-02-18T16:01:17.144Z,35
2018-02-18T16:02:31.649Z,35
2018-02-18T16:03:46.685Z,35
2018-02-18T16:05:01.302Z,35
2018-02-18T16:06:16.067Z,35
2018-02-18T16:07:30.934Z,30
2018-02-18T16:08:46.042Z,30
2018-02-18T16:10:01.191Z,30
2018-02-18T16:11:15.869Z,30
2018-02-18T16:12:29.959Z,30
2018-02-18T16:13:45.078Z,25
2018-02-18T16:15:00.405Z,25
2018-02-18T16:16:14.927Z,25
2018-02-18T16:17:29.819Z,25
2018-02-18T16:18:44.104Z,25
2018-02-18T16:19:59.112Z,20
2018-02-18T16:21:14.129Z,20
2018-02-18T16:22:29.180Z,20
2018-02-18T16:23:43.410Z,15
2018-02-18T16:24:57.630Z,15
2018-02-18T16:26:12.096Z,15
2018-02-18T16:27:26.813Z,15
2018-02-18T16:28:41.850Z,15
2018-02-18T16:29:56.783Z,15
2018-02-18T16:31:11.397Z,10
2018-02-18T16:32:26.718Z,10
2018-02-18T16:33:41.257Z,10
2018-02-18T16:34:56.144Z,10
2018-02-18T16:36:10.212Z,10
2018-02-18T16:37:24.912Z,10
2018-02-18T16:38:39.393Z,5
2018-02-18T16:39:55.138Z,5
2018-02-18T16:41:09.732Z,5
2018-02-18T16:42:24.282Z,5
2018-02-18T16:43:38.727Z,5
2018-02-18T16:44:53.788Z,5
2018-02-18T16:46:08.804Z,5
2018-02-18T16:47:24.254Z,0
2018-02-18T16:48:39.887Z,0
2018-02-18T16:49:54.700Z,0
2018-02-18T16:51:09.292Z,0
2018-02-18T16:52:24.186Z,0
2018-02-18T16:53:39.092Z,0
2018-02-18T16:54:54.317Z,0
2018-02-18T16:56:09.063Z,0
2018-02-18T16:57:23.848Z,0
2018-02-18T16:58:38.518Z,0
2018-02-18T16:59:52.997Z,0
2018-02-18T17:01:07.265Z,0
2018-02-18T17:02:21.988Z,0
2018-02-18T17:03:36.339Z,0
2018-02-18T17:04:51.332Z,0
2018-02-18T17:06:05.867Z,0
2018-02-18T17:07:20.710Z,0
2018-02-18T17:08:35.559Z,0
2018-02-18T17:09:50.359Z,0
2018-02-18T17:11:04.671Z,0
2018-02-18T17:12:19.782Z,0
2018-02-18T17:13:34.700Z,0
2018-02-18T17:14:49.774Z,0
2018-02-18T17:16:04.039Z,0
2018-02-18T17:17:18.875Z,0
2018-02-18T17:18:33.608Z,0
2018-02-18T17:19:48.955Z,0
2018-02-18T17:21:03.757Z,0
2018-02-18T17:22:18.770Z,0
2018-02-18T17:23:33.611Z,0
2018-02-18T17:24:47.841Z,0
2018-02-18T17:26:02.392Z,0
2018-02-18T17:27:17.154Z,0
2018-02-18T17:28:30.824Z,0
2018-02-18T17:29:45.273Z,0
2018-02-18T17:30:59.808Z,0
2018-02-18T17:32:14.451Z,0
2018-02-18T17:33:30.187Z,0
2018-02-18T17:34:59.969Z,0
2018-02-18T17:36:14.760Z,0
2018-02-18T17:37:29.870Z,0
2018-02-18T17:38:44.382Z,0
2018-02-18T17:39:59.321Z,0
2018-02-18T17:41:13.575Z,0
2018-02-18T17:42:28.093Z,0
2018-02-18T17:43:43.133Z,0
2018-02-18T17:44:57.665Z,0
2018-02-18T17:46:13.020Z,0
2018-02-18T17:47:27.585Z,0
2018-02-18T17:48:42.430Z,0
2018-02-18T17:49:57.736Z,0
2018-02-18T17:51:11.963Z,0
2018-02-18T17:52:27.062Z,0
2018-02-18T17:53:42.087Z,0
2018-02-18T17:54:57.125Z,0
2018-02-18T17:56:11.460Z,0
2018-02-18T17:57:25.727Z,0
2018-02-18T17:58:40.568Z,0
2018-02-18T17:59:56.514Z,0
2018-02-18T18:01:10.835Z,0
2018-02-18T18:02:25.941Z,0
2018-02-18T18:03:40.543Z,0